sensor_id;sensor_type;location;lat;lon;timestamp;pressure;altitude;pressure_sealevel;temperature;humidity
61786;BME280;47692;53.714;11.372;2023-01-30T00:01:04;100310.69;;;1.60;100.00
61786;BME280;47692;53.714;11.372;2023-01-30T00:03:30;100318.41;;;1.60;100.00
61786;BME280;47692;53.714;11.372;2023-01-30T00:05:55;100292.66;;;1.62;100.00
61786;BME280;47692;53.714;11.372;2023-01-30T00:08:21;100304.69;;;1.65;100.00
61786;BME280;47692;53.714;11.372;2023-01-30T00:10:47;100305.59;;;1.70;100.00
61786;BME280;47692;53.714;11.372;2023-01-30T00:13:13;100310.72;;;1.70;100.00
61786;BME280;47692;53.714;11.372;2023-01-30T00:15:39;100309.94;;;1.75;100.00
61786;BME280;47692;53.714;11.372;2023-01-30T00:18:05;100300.47;;;1.76;100.00
61786;BME280;47692;53.714;11.372;2023-01-30T00:20:30;100294.50;;;1.77;100.00
61786;BME280;47692;53.714;11.372;2023-01-30T00:22:56;100275.63;;;1.80;100.00
61786;BME280;47692;53.714;11.372;2023-01-30T00:25:23;100286.78;;;1.80;100.00
61786;BME280;47692;53.714;11.372;2023-01-30T00:27:48;100279.03;;;1.80;100.00
61786;BME280;47692;53.714;11.372;2023-01-30T00:30:14;100276.50;;;1.86;100.00
61786;BME280;47692;53.714;11.372;2023-01-30T00:32:39;100267.06;;;1.85;100.00
61786;BME280;47692;53.714;11.372;2023-01-30T00:35:05;100262.81;;;1.90;100.00
61786;BME280;47692;53.714;11.372;2023-01-30T00:37:31;100248.22;;;1.92;100.00
61786;BME280;47692;53.714;11.372;2023-01-30T00:39:56;100241.38;;;1.96;100.00
61786;BME280;47692;53.714;11.372;2023-01-30T00:42:21;100252.56;;;1.97;100.00
61786;BME280;47692;53.714;11.372;2023-01-30T00:45:05;100235.38;;;1.96;100.00
61786;BME280;47692;53.714;11.372;2023-01-30T00:47:49;100225.09;;;1.96;100.00
61786;BME280;47692;53.714;11.372;2023-01-30T00:50:15;100197.59;;;1.98;100.00
61786;BME280;47692;53.714;11.372;2023-01-30T00:52:40;100216.50;;;1.97;100.00
61786;BME280;47692;53.714;11.372;2023-01-30T00:55:06;100195.91;;;1.97;100.00
61786;BME280;47692;53.714;11.372;2023-01-30T00:57:32;100194.19;;;1.96;100.00
61786;BME280;47692;53.714;11.372;2023-01-30T00:59:57;100196.75;;;1.99;100.00
61786;BME280;47692;53.714;11.372;2023-01-30T01:02:22;100175.31;;;2.00;100.00
61786;BME280;47692;53.714;11.372;2023-01-30T01:04:47;100171.84;;;1.98;100.00
61786;BME280;47692;53.714;11.372;2023-01-30T01:07:13;100168.47;;;2.02;100.00
61786;BME280;47692;53.714;11.372;2023-01-30T01:09:39;100161.59;;;2.01;100.00
61786;BME280;47692;53.714;11.372;2023-01-30T01:12:05;100159.00;;;2.01;100.00
61786;BME280;47692;53.714;11.372;2023-01-30T01:14:30;100167.59;;;2.06;100.00
61786;BME280;47692;53.714;11.372;2023-01-30T01:16:56;100166.75;;;2.07;100.00
61786;BME280;47692;53.714;11.372;2023-01-30T01:19:21;100149.59;;;2.06;100.00
61786;BME280;47692;53.714;11.372;2023-01-30T01:21:47;100154.75;;;2.10;100.00
61786;BME280;47692;53.714;11.372;2023-01-30T01:24:14;100151.31;;;2.07;100.00
61786;BME280;47692;53.714;11.372;2023-01-30T01:26:39;100147.00;;;2.07;100.00
61786;BME280;47692;53.714;11.372;2023-01-30T01:29:06;100135.84;;;2.10;100.00
61786;BME280;47692;53.714;11.372;2023-01-30T01:31:33;100110.97;;;2.14;100.00
61786;BME280;47692;53.714;11.372;2023-01-30T01:33:58;100117.84;;;2.13;100.00
61786;BME280;47692;53.714;11.372;2023-01-30T01:36:23;100105.84;;;2.17;100.00
61786;BME280;47692;53.714;11.372;2023-01-30T01:38:48;100112.72;;;2.18;100.00
61786;BME280;47692;53.714;11.372;2023-01-30T01:41:16;100106.69;;;2.17;100.00
61786;BME280;47692;53.714;11.372;2023-01-30T01:44:05;100107.53;;;2.22;100.00
61786;BME280;47692;53.714;11.372;2023-01-30T01:46:37;100092.09;;;2.27;100.00
61786;BME280;47692;53.714;11.372;2023-01-30T01:49:16;100091.25;;;2.26;100.00
61786;BME280;47692;53.714;11.372;2023-01-30T01:54:33;100090.38;;;2.32;100.00
61786;BME280;47692;53.714;11.372;2023-01-30T01:57:10;100075.81;;;2.39;100.00
61786;BME280;47692;53.714;11.372;2023-01-30T02:00:01;100062.91;;;2.37;100.00
61786;BME280;47692;53.714;11.372;2023-01-30T02:02:28;100062.94;;;2.40;100.00
61786;BME280;47692;53.714;11.372;2023-01-30T02:04:56;100060.34;;;2.40;100.00
61786;BME280;47692;53.714;11.372;2023-01-30T02:10:18;100048.31;;;2.41;100.00
61786;BME280;47692;53.714;11.372;2023-01-30T02:12:44;100045.75;;;2.42;100.00
61786;BME280;47692;53.714;11.372;2023-01-30T02:15:10;100036.28;;;2.40;100.00
61786;BME280;47692;53.714;11.372;2023-01-30T02:17:35;100033.72;;;2.43;100.00
61786;BME280;47692;53.714;11.372;2023-01-30T02:33:44;99985.63;;;2.51;100.00
61786;BME280;47692;53.714;11.372;2023-01-30T02:36:25;99982.19;;;2.54;100.00
61786;BME280;47692;53.714;11.372;2023-01-30T02:44:44;99974.44;;;2.55;100.00
61786;BME280;47692;53.714;11.372;2023-01-30T02:47:20;99963.28;;;2.55;100.00
61786;BME280;47692;53.714;11.372;2023-01-30T02:49:52;99961.56;;;2.55;100.00
61786;BME280;47692;53.714;11.372;2023-01-30T02:52:20;99954.69;;;2.59;100.00
61786;BME280;47692;53.714;11.372;2023-01-30T02:54:46;99950.38;;;2.63;100.00
61786;BME280;47692;53.714;11.372;2023-01-30T02:57:20;99955.53;;;2.63;100.00
61786;BME280;47692;53.714;11.372;2023-01-30T02:59:47;99940.03;;;2.66;100.00
61786;BME280;47692;53.714;11.372;2023-01-30T03:05:01;99931.41;;;2.74;100.00
61786;BME280;47692;53.714;11.372;2023-01-30T03:07:49;99926.28;;;2.73;100.00
61786;BME280;47692;53.714;11.372;2023-01-30T03:13:04;99924.53;;;2.78;100.00
61786;BME280;47692;53.714;11.372;2023-01-30T03:15:53;99915.94;;;2.79;100.00
61786;BME280;47692;53.714;11.372;2023-01-30T03:18:19;99913.34;;;2.81;100.00
61786;BME280;47692;53.714;11.372;2023-01-30T03:20:45;99919.38;;;2.81;100.00
61786;BME280;47692;53.714;11.372;2023-01-30T03:23:11;99906.47;;;2.83;100.00
61786;BME280;47692;53.714;11.372;2023-01-30T03:25:39;99909.03;;;2.84;100.00
61786;BME280;47692;53.714;11.372;2023-01-30T03:28:07;99907.31;;;2.89;100.00
61786;BME280;47692;53.714;11.372;2023-01-30T03:30:32;99897.88;;;2.90;100.00
61786;BME280;47692;53.714;11.372;2023-01-30T03:32:58;99903.88;;;2.90;100.00
61786;BME280;47692;53.714;11.372;2023-01-30T03:35:23;99892.69;;;2.91;100.00
61786;BME280;47692;53.714;11.372;2023-01-30T03:37:49;99879.81;;;2.91;100.00
61786;BME280;47692;53.714;11.372;2023-01-30T03:40:16;99882.38;;;2.96;100.00
61786;BME280;47692;53.714;11.372;2023-01-30T03:42:41;99873.72;;;3.02;100.00
61786;BME280;47692;53.714;11.372;2023-01-30T03:45:08;99872.88;;;3.03;100.00
61786;BME280;47692;53.714;11.372;2023-01-30T03:47:33;99867.72;;;3.06;100.00
61786;BME280;47692;53.714;11.372;2023-01-30T03:49:59;99871.09;;;3.08;100.00
61786;BME280;47692;53.714;11.372;2023-01-30T03:52:24;99874.56;;;3.09;100.00
61786;BME280;47692;53.714;11.372;2023-01-30T03:54:50;99870.19;;;3.17;100.00
61786;BME280;47692;53.714;11.372;2023-01-30T03:57:15;99867.66;;;3.14;100.00
61786;BME280;47692;53.714;11.372;2023-01-30T03:59:41;99855.56;;;3.20;100.00
61786;BME280;47692;53.714;11.372;2023-01-30T04:02:06;99859.03;;;3.18;100.00
61786;BME280;47692;53.714;11.372;2023-01-30T04:04:32;99860.72;;;3.20;100.00
61786;BME280;47692;53.714;11.372;2023-01-30T04:06:58;99848.69;;;3.22;100.00
61786;BME280;47692;53.714;11.372;2023-01-30T04:09:23;99833.19;;;3.22;100.00
61786;BME280;47692;53.714;11.372;2023-01-30T04:11:48;99833.19;;;3.24;100.00
61786;BME280;47692;53.714;11.372;2023-01-30T04:14:14;99848.66;;;3.26;100.00
61786;BME280;47692;53.714;11.372;2023-01-30T04:16:39;99844.34;;;3.31;100.00
61786;BME280;47692;53.714;11.372;2023-01-30T04:19:04;99837.47;;;3.30;100.00
61786;BME280;47692;53.714;11.372;2023-01-30T04:21:30;99841.75;;;3.28;100.00
61786;BME280;47692;53.714;11.372;2023-01-30T04:23:55;99845.16;;;3.33;100.00
61786;BME280;47692;53.714;11.372;2023-01-30T04:26:20;99842.56;;;3.36;100.00
61786;BME280;47692;53.714;11.372;2023-01-30T04:28:46;99834.84;;;3.36;100.00
61786;BME280;47692;53.714;11.372;2023-01-30T04:31:11;99826.19;;;3.40;100.00
61786;BME280;47692;53.714;11.372;2023-01-30T04:33:36;99831.34;;;3.43;100.00
61786;BME280;47692;53.714;11.372;2023-01-30T04:36:05;99837.31;;;3.47;100.00
61786;BME280;47692;53.714;11.372;2023-01-30T04:38:32;99852.81;;;3.48;100.00
61786;BME280;47692;53.714;11.372;2023-01-30T04:40:58;99840.69;;;3.55;100.00
61786;BME280;47692;53.714;11.372;2023-01-30T04:43:24;99838.97;;;3.57;100.00
61786;BME280;47692;53.714;11.372;2023-01-30T04:45:50;99851.84;;;3.59;100.00
61786;BME280;47692;53.714;11.372;2023-01-30T04:48:16;99855.28;;;3.61;100.00
61786;BME280;47692;53.714;11.372;2023-01-30T04:50:43;99856.97;;;3.62;100.00
61786;BME280;47692;53.714;11.372;2023-01-30T04:53:09;99851.81;;;3.62;100.00
61786;BME280;47692;53.714;11.372;2023-01-30T04:55:35;99855.25;;;3.67;100.00
61786;BME280;47692;53.714;11.372;2023-01-30T04:58:00;99848.31;;;3.69;100.00
61786;BME280;47692;53.714;11.372;2023-01-30T05:00:26;99849.19;;;3.69;100.00
61786;BME280;47692;53.714;11.372;2023-01-30T05:02:51;99851.78;;;3.68;100.00
61786;BME280;47692;53.714;11.372;2023-01-30T05:05:17;99845.72;;;3.72;100.00
61786;BME280;47692;53.714;11.372;2023-01-30T05:07:43;99840.50;;;3.77;100.00
61786;BME280;47692;53.714;11.372;2023-01-30T05:10:08;99825.91;;;3.74;100.00
61786;BME280;47692;53.714;11.372;2023-01-30T05:12:34;99817.28;;;3.77;100.00
61786;BME280;47692;53.714;11.372;2023-01-30T05:15:00;99803.50;;;3.79;100.00
61786;BME280;47692;53.714;11.372;2023-01-30T05:17:26;99787.16;;;3.77;100.00
61786;BME280;47692;53.714;11.372;2023-01-30T05:19:51;99794.91;;;3.77;100.00
61786;BME280;47692;53.714;11.372;2023-01-30T05:22:16;99796.63;;;3.75;100.00
61786;BME280;47692;53.714;11.372;2023-01-30T05:24:42;99796.63;;;3.78;100.00
61786;BME280;47692;53.714;11.372;2023-01-30T05:27:07;99785.50;;;3.70;100.00
61786;BME280;47692;53.714;11.372;2023-01-30T05:29:32;99793.22;;;3.71;100.00
61786;BME280;47692;53.714;11.372;2023-01-30T05:31:58;99797.53;;;3.71;100.00
61786;BME280;47692;53.714;11.372;2023-01-30T05:34:23;99793.28;;;3.67;100.00
61786;BME280;47692;53.714;11.372;2023-01-30T05:36:48;99803.63;;;3.67;100.00
61786;BME280;47692;53.714;11.372;2023-01-30T05:39:14;99797.56;;;3.66;100.00
61786;BME280;47692;53.714;11.372;2023-01-30T05:41:39;99799.34;;;3.61;100.00
61786;BME280;47692;53.714;11.372;2023-01-30T05:44:04;99801.97;;;3.56;100.00
61786;BME280;47692;53.714;11.372;2023-01-30T05:46:30;99810.63;;;3.49;100.00
61786;BME280;47692;53.714;11.372;2023-01-30T05:48:55;99808.94;;;3.48;100.00
61786;BME280;47692;53.714;11.372;2023-01-30T05:51:22;99812.41;;;3.43;100.00
61786;BME280;47692;53.714;11.372;2023-01-30T05:53:48;99807.28;;;3.38;100.00
61786;BME280;47692;53.714;11.372;2023-01-30T05:56:13;99817.59;;;3.38;100.00
61786;BME280;47692;53.714;11.372;2023-01-30T05:58:38;99803.84;;;3.39;100.00
61786;BME280;47692;53.714;11.372;2023-01-30T06:01:06;99815.91;;;3.37;100.00
61786;BME280;47692;53.714;11.372;2023-01-30T06:03:32;99815.91;;;3.37;100.00
61786;BME280;47692;53.714;11.372;2023-01-30T06:06:00;99826.25;;;3.34;100.00
61786;BME280;47692;53.714;11.372;2023-01-30T06:08:25;99832.28;;;3.31;100.00
61786;BME280;47692;53.714;11.372;2023-01-30T06:10:51;99843.44;;;3.32;100.00
61786;BME280;47692;53.714;11.372;2023-01-30T06:13:16;99834.88;;;3.30;100.00
61786;BME280;47692;53.714;11.372;2023-01-30T06:15:41;99834.88;;;3.27;100.00
61786;BME280;47692;53.714;11.372;2023-01-30T06:18:07;99841.75;;;3.28;100.00
61786;BME280;47692;53.714;11.372;2023-01-30T06:20:32;99843.47;;;3.29;100.00
61786;BME280;47692;53.714;11.372;2023-01-30T06:22:57;99836.59;;;3.31;100.00
61786;BME280;47692;53.714;11.372;2023-01-30T06:25:23;99830.59;;;3.27;100.00
61786;BME280;47692;53.714;11.372;2023-01-30T06:27:48;99833.16;;;3.26;100.00
61786;BME280;47692;53.714;11.372;2023-01-30T06:30:13;99829.75;;;3.23;100.00
61786;BME280;47692;53.714;11.372;2023-01-30T06:32:39;99828.00;;;3.26;100.00
61786;BME280;47692;53.714;11.372;2023-01-30T06:35:05;99829.72;;;3.27;100.00
61786;BME280;47692;53.714;11.372;2023-01-30T06:37:31;99824.56;;;3.27;100.00
61786;BME280;47692;53.714;11.372;2023-01-30T06:39:56;99834.91;;;3.23;100.00
61786;BME280;47692;53.714;11.372;2023-01-30T06:42:21;99834.91;;;3.23;100.00
61786;BME280;47692;53.714;11.372;2023-01-30T06:44:47;99822.00;;;3.25;100.00
61786;BME280;47692;53.714;11.372;2023-01-30T06:47:12;99823.69;;;3.28;100.00
61786;BME280;47692;53.714;11.372;2023-01-30T06:49:37;99833.16;;;3.29;100.00
61786;BME280;47692;53.714;11.372;2023-01-30T06:52:03;99831.41;;;3.34;100.00
61786;BME280;47692;53.714;11.372;2023-01-30T06:54:28;99834.84;;;3.36;100.00
61786;BME280;47692;53.714;11.372;2023-01-30T06:56:53;99831.34;;;3.40;100.00
61786;BME280;47692;53.714;11.372;2023-01-30T06:59:19;99822.75;;;3.41;100.00
61786;BME280;47692;53.714;11.372;2023-01-30T07:01:44;99831.31;;;3.46;100.00
61786;BME280;47692;53.714;11.372;2023-01-30T07:04:09;99828.75;;;3.45;100.00
61786;BME280;47692;53.714;11.372;2023-01-30T07:06:35;99833.03;;;3.47;100.00
61786;BME280;47692;53.714;11.372;2023-01-30T07:09:00;99841.59;;;3.49;100.00
61786;BME280;47692;53.714;11.372;2023-01-30T07:11:26;99825.25;;;3.49;100.00
61786;BME280;47692;53.714;11.372;2023-01-30T07:13:51;99823.59;;;3.45;100.00
61786;BME280;47692;53.714;11.372;2023-01-30T07:16:17;99842.47;;;3.47;100.00
61786;BME280;47692;53.714;11.372;2023-01-30T07:18:42;99839.94;;;3.42;100.00
61786;BME280;47692;53.714;11.372;2023-01-30T07:21:08;99824.47;;;3.42;100.00
61786;BME280;47692;53.714;11.372;2023-01-30T07:23:33;99839.97;;;3.39;100.00
61786;BME280;47692;53.714;11.372;2023-01-30T07:26:02;99839.97;;;3.39;100.00
61786;BME280;47692;53.714;11.372;2023-01-30T07:28:28;99834.84;;;3.36;100.00
61786;BME280;47692;53.714;11.372;2023-01-30T07:30:53;99837.41;;;3.37;100.00
61786;BME280;47692;53.714;11.372;2023-01-30T07:33:19;99835.69;;;3.36;100.00
61786;BME280;47692;53.714;11.372;2023-01-30T07:35:45;99828.81;;;3.37;100.00
61786;BME280;47692;53.714;11.372;2023-01-30T07:38:10;99840.84;;;3.39;100.00
61786;BME280;47692;53.714;11.372;2023-01-30T07:40:36;99833.06;;;3.43;100.00
61786;BME280;47692;53.714;11.372;2023-01-30T07:43:06;99822.66;;;3.50;100.00
61786;BME280;47692;53.714;11.372;2023-01-30T07:45:38;99822.66;;;3.50;100.00
61786;BME280;47692;53.714;11.372;2023-01-30T07:48:04;99835.56;;;3.50;100.00
61786;BME280;47692;53.714;11.372;2023-01-30T07:50:29;99833.81;;;3.57;100.00
61786;BME280;47692;53.714;11.372;2023-01-30T07:52:55;99826.00;;;3.62;100.00
61786;BME280;47692;53.714;11.372;2023-01-30T07:55:20;99821.69;;;3.67;100.00
61786;BME280;47692;53.714;11.372;2023-01-30T07:57:46;99829.47;;;3.62;100.00
61786;BME280;47692;53.714;11.372;2023-01-30T08:00:11;99825.94;;;3.71;100.00
61786;BME280;47692;53.714;11.372;2023-01-30T08:02:37;99831.94;;;3.71;100.00
61786;BME280;47692;53.714;11.372;2023-01-30T08:05:03;99837.94;;;3.75;100.00
61786;BME280;47692;53.714;11.372;2023-01-30T08:07:28;99836.19;;;3.79;100.00
61786;BME280;47692;53.714;11.372;2023-01-30T08:09:54;99828.50;;;3.76;100.00
61786;BME280;47692;53.714;11.372;2023-01-30T08:12:19;99834.50;;;3.76;100.00
61786;BME280;47692;53.714;11.372;2023-01-30T08:14:44;99832.78;;;3.78;100.00
61786;BME280;47692;53.714;11.372;2023-01-30T08:17:10;99831.00;;;3.80;100.00
61786;BME280;47692;53.714;11.372;2023-01-30T08:19:35;99824.16;;;3.79;100.00
61786;BME280;47692;53.714;11.372;2023-01-30T08:22:00;99819.84;;;3.77;100.00
61786;BME280;47692;53.714;11.372;2023-01-30T08:24:25;99801.81;;;3.75;100.00
61786;BME280;47692;53.714;11.372;2023-01-30T08:26:51;99823.31;;;3.77;100.00
61786;BME280;47692;53.714;11.372;2023-01-30T08:29:16;99823.31;;;3.76;100.00
61786;BME280;47692;53.714;11.372;2023-01-30T08:31:42;99821.66;;;3.70;100.00
61786;BME280;47692;53.714;11.372;2023-01-30T08:34:07;99804.47;;;3.66;100.00
61786;BME280;47692;53.714;11.372;2023-01-30T08:36:32;99820.00;;;3.64;100.00
61786;BME280;47692;53.714;11.372;2023-01-30T08:38:57;99826.06;;;3.59;100.00
61786;BME280;47692;53.714;11.372;2023-01-30T08:41:23;99827.78;;;3.56;100.00
61786;BME280;47692;53.714;11.372;2023-01-30T08:43:48;99809.72;;;3.58;100.00
61786;BME280;47692;53.714;11.372;2023-01-30T08:46:13;99829.47;;;3.61;100.00
61786;BME280;47692;53.714;11.372;2023-01-30T08:48:39;99822.56;;;3.63;100.00
61786;BME280;47692;53.714;11.372;2023-01-30T08:51:07;99824.25;;;3.65;100.00
61786;BME280;47692;53.714;11.372;2023-01-30T08:53:32;99823.44;;;3.62;100.00
61786;BME280;47692;53.714;11.372;2023-01-30T08:55:57;99817.41;;;3.63;100.00
61786;BME280;47692;53.714;11.372;2023-01-30T08:58:23;99810.47;;;3.68;100.00
61786;BME280;47692;53.714;11.372;2023-01-30T09:00:48;99809.59;;;3.69;100.00
61786;BME280;47692;53.714;11.372;2023-01-30T09:03:14;99807.91;;;3.69;100.00
61786;BME280;47692;53.714;11.372;2023-01-30T09:05:40;99804.41;;;3.74;100.00
61786;BME280;47692;53.714;11.372;2023-01-30T09:08:06;99797.44;;;3.82;100.00
61786;BME280;47692;53.714;11.372;2023-01-30T09:10:31;99787.88;;;3.92;100.00
61786;BME280;47692;53.714;11.372;2023-01-30T09:12:56;99781.75;;;4.02;100.00
61786;BME280;47692;53.714;11.372;2023-01-30T09:15:22;99780.81;;;4.09;100.00
61786;BME280;47692;53.714;11.372;2023-01-30T09:17:47;99785.00;;;4.18;100.00
61786;BME280;47692;53.714;11.372;2023-01-30T09:20:13;99797.84;;;4.26;100.00
61786;BME280;47692;53.714;11.372;2023-01-30T09:22:38;99768.47;;;4.31;100.00
61786;BME280;47692;53.714;11.372;2023-01-30T09:25:05;99787.44;;;4.32;100.00
61786;BME280;47692;53.714;11.372;2023-01-30T09:27:31;99788.19;;;4.39;100.00
61786;BME280;47692;53.714;11.372;2023-01-30T09:29:56;99797.63;;;4.44;100.00
61786;BME280;47692;53.714;11.372;2023-01-30T09:32:22;99792.41;;;4.47;99.70
61786;BME280;47692;53.714;11.372;2023-01-30T09:34:47;99789.00;;;4.45;99.45
61786;BME280;47692;53.714;11.372;2023-01-30T09:37:13;99792.47;;;4.41;99.58
61786;BME280;47692;53.714;11.372;2023-01-30T09:39:38;99797.78;;;4.32;99.33
61786;BME280;47692;53.714;11.372;2023-01-30T09:47:32;99791.78;;;4.28;98.95
61786;BME280;47692;53.714;11.372;2023-01-30T09:52:56;99780.66;;;4.22;99.92
61786;BME280;47692;53.714;11.372;2023-01-30T09:55:28;99778.16;;;4.15;100.00
61786;BME280;47692;53.714;11.372;2023-01-30T09:57:56;99788.47;;;4.17;100.00
61786;BME280;47692;53.714;11.372;2023-01-30T10:03:19;99787.56;;;4.19;100.00
61786;BME280;47692;53.714;11.372;2023-01-30T10:06:00;99776.38;;;4.17;100.00
61786;BME280;47692;53.714;11.372;2023-01-30T10:08:51;99788.50;;;4.12;100.00
61786;BME280;47692;53.714;11.372;2023-01-30T10:12:24;99775.66;;;4.06;100.00
61786;BME280;47692;53.714;11.372;2023-01-30T10:19:50;99730.09;;;3.99;100.00
61786;BME280;47692;53.714;11.372;2023-01-30T10:25:24;99730.91;;;4.04;100.00
61786;BME280;47692;53.714;11.372;2023-01-30T10:30:50;99758.31;;;4.17;100.00
61786;BME280;47692;53.714;11.372;2023-01-30T10:33:21;99766.00;;;4.22;100.00
61786;BME280;47692;53.714;11.372;2023-01-30T10:35:56;99770.25;;;4.28;100.00
61786;BME280;47692;53.714;11.372;2023-01-30T10:43:40;99788.56;;;4.06;100.00
61786;BME280;47692;53.714;11.372;2023-01-30T10:46:25;99769.88;;;3.82;100.00
61786;BME280;47692;53.714;11.372;2023-01-30T10:51:54;99781.25;;;3.63;100.00
61786;BME280;47692;53.714;11.372;2023-01-30T10:55:02;99764.13;;;3.55;100.00
61786;BME280;47692;53.714;11.372;2023-01-30T11:03:11;99783.19;;;3.42;100.00
61786;BME280;47692;53.714;11.372;2023-01-30T11:05:51;99797.97;;;3.18;100.00
61786;BME280;47692;53.714;11.372;2023-01-30T11:08:28;99764.66;;;2.84;100.00
61786;BME280;47692;53.714;11.372;2023-01-30T11:10:55;99770.09;;;2.38;100.00
61786;BME280;47692;53.714;11.372;2023-01-30T11:13:23;99754.66;;;2.27;100.00
61786;BME280;47692;53.714;11.372;2023-01-30T11:15:53;99752.09;;;2.25;100.00
61786;BME280;47692;53.714;11.372;2023-01-30T11:18:21;99729.78;;;2.28;100.00
61786;BME280;47692;53.714;11.372;2023-01-30T11:21:04;99732.34;;;2.31;100.00
61786;BME280;47692;53.714;11.372;2023-01-30T11:23:32;99740.06;;;2.34;100.00
61786;BME280;47692;53.714;11.372;2023-01-30T11:26:00;99730.56;;;2.42;100.00
61786;BME280;47692;53.714;11.372;2023-01-30T11:28:26;99738.22;;;2.53;100.00
61786;BME280;47692;53.714;11.372;2023-01-30T11:30:57;99744.19;;;2.59;100.00
61786;BME280;47692;53.714;11.372;2023-01-30T11:33:33;99745.06;;;2.62;100.00
61786;BME280;47692;53.714;11.372;2023-01-30T11:36:04;99726.13;;;2.66;100.00
61786;BME280;47692;53.714;11.372;2023-01-30T11:38:33;99723.53;;;2.66;100.00
61786;BME280;47692;53.714;11.372;2023-01-30T11:43:34;99727.81;;;2.73;100.00
61786;BME280;47692;53.714;11.372;2023-01-30T11:46:01;99735.53;;;2.76;100.00
61786;BME280;47692;53.714;11.372;2023-01-30T11:48:29;99713.16;;;2.78;100.00
61786;BME280;47692;53.714;11.372;2023-01-30T11:51:05;99702.00;;;2.74;100.00
61786;BME280;47692;53.714;11.372;2023-01-30T11:53:43;99696.91;;;2.70;100.00
61786;BME280;47692;53.714;11.372;2023-01-30T11:56:29;99712.38;;;2.70;100.00
61786;BME280;47692;53.714;11.372;2023-01-30T11:59:04;99716.72;;;2.62;100.00
61786;BME280;47692;53.714;11.372;2023-01-30T12:01:32;99708.13;;;2.59;100.00
61786;BME280;47692;53.714;11.372;2023-01-30T12:04:00;99692.66;;;2.61;100.00
61786;BME280;47692;53.714;11.372;2023-01-30T12:06:29;99712.41;;;2.61;100.00
61786;BME280;47692;53.714;11.372;2023-01-30T12:08:55;99698.63;;;2.65;100.00
61786;BME280;47692;53.714;11.372;2023-01-30T12:11:27;99714.09;;;2.65;100.00
61786;BME280;47692;53.714;11.372;2023-01-30T12:14:01;99706.34;;;2.68;100.00
61786;BME280;47692;53.714;11.372;2023-01-30T12:16:50;99721.78;;;2.74;100.00
61786;BME280;47692;53.714;11.372;2023-01-30T12:19:31;99701.16;;;2.71;100.00
61786;BME280;47692;53.714;11.372;2023-01-30T12:25:08;99727.81;;;2.71;100.00
61786;BME280;47692;53.714;11.372;2023-01-30T12:27:54;99720.06;;;2.76;100.00
61786;BME280;47692;53.714;11.372;2023-01-30T12:30:27;99729.38;;;2.94;100.00
61786;BME280;47692;53.714;11.372;2023-01-30T12:32:58;99721.47;;;3.17;100.00
61786;BME280;47692;53.714;11.372;2023-01-30T12:38:45;99728.19;;;3.34;100.00
61786;BME280;47692;53.714;11.372;2023-01-30T12:41:33;99725.53;;;3.43;100.00
61786;BME280;47692;53.714;11.372;2023-01-30T12:44:12;99719.28;;;3.67;100.00
61786;BME280;47692;53.714;11.372;2023-01-30T12:46:49;99726.16;;;3.67;100.00
61786;BME280;47692;53.714;11.372;2023-01-30T12:54:53;99710.94;;;3.42;100.00
61786;BME280;47692;53.714;11.372;2023-01-30T13:00:17;99714.19;;;3.60;100.00
61786;BME280;47692;53.714;11.372;2023-01-30T13:06:17;99724.44;;;3.67;100.00
61786;BME280;47692;53.714;11.372;2023-01-30T13:11:41;99743.28;;;3.74;100.00
61786;BME280;47692;53.714;11.372;2023-01-30T13:16:50;99732.88;;;3.80;100.00
61786;BME280;47692;53.714;11.372;2023-01-30T13:19:34;99726.91;;;3.78;100.00
61786;BME280;47692;53.714;11.372;2023-01-30T13:22:12;99734.50;;;3.89;100.00
61786;BME280;47692;53.714;11.372;2023-01-30T13:24:56;99739.72;;;3.87;100.00
61786;BME280;47692;53.714;11.372;2023-01-30T13:27:24;99748.25;;;3.93;100.00
61786;BME280;47692;53.714;11.372;2023-01-30T13:29:51;99751.72;;;3.92;100.00
61786;BME280;47692;53.714;11.372;2023-01-30T13:32:43;99766.38;;;3.90;100.00
61786;BME280;47692;53.714;11.372;2023-01-30T13:35:16;99767.19;;;3.95;100.00
61786;BME280;47692;53.714;11.372;2023-01-30T13:37:45;99782.69;;;3.93;100.00
61786;BME280;47692;53.714;11.372;2023-01-30T13:42:49;99778.34;;;3.97;100.00
61786;BME280;47692;53.714;11.372;2023-01-30T13:45:29;99775.72;;;4.00;100.00
61786;BME280;47692;53.714;11.372;2023-01-30T13:56:14;99772.16;;;4.10;100.00
61786;BME280;47692;53.714;11.372;2023-01-30T14:01:12;99777.34;;;4.12;100.00
61786;BME280;47692;53.714;11.372;2023-01-30T14:03:39;99772.84;;;4.28;100.00
61786;BME280;47692;53.714;11.372;2023-01-30T14:06:09;99781.97;;;4.53;100.00
61786;BME280;47692;53.714;11.372;2023-01-30T14:11:33;99770.78;;;4.53;97.20
61786;BME280;47692;53.714;11.372;2023-01-30T14:16:52;99797.50;;;4.53;98.02
61786;BME280;47692;53.714;11.372;2023-01-30T14:21:59;99805.31;;;4.47;97.83
61786;BME280;47692;53.714;11.372;2023-01-30T14:24:25;99801.06;;;4.46;97.49
61786;BME280;47692;53.714;11.372;2023-01-30T14:37:26;99806.59;;;4.12;99.85
61786;BME280;47692;53.714;11.372;2023-01-30T14:39:53;99831.56;;;4.13;100.00
61786;BME280;47692;53.714;11.372;2023-01-30T14:42:28;99829.00;;;4.12;100.00
61786;BME280;47692;53.714;11.372;2023-01-30T14:45:13;99854.00;;;4.08;100.00
61786;BME280;47692;53.714;11.372;2023-01-30T14:47:39;99856.66;;;4.02;100.00
61786;BME280;47692;53.714;11.372;2023-01-30T14:50:16;99843.75;;;3.99;100.00
61786;BME280;47692;53.714;11.372;2023-01-30T14:52:42;99849.78;;;3.98;100.00
61786;BME280;47692;53.714;11.372;2023-01-30T14:55:20;99862.72;;;3.96;100.00
61786;BME280;47692;53.714;11.372;2023-01-30T14:57:55;99867.03;;;3.96;100.00
61786;BME280;47692;53.714;11.372;2023-01-30T15:00:38;99878.19;;;4.01;100.00